createdAt,value
2018-03-26T00:00:30.435Z,23.20
2018-03-26T00:02:56.890Z,23.83
2018-03-26T00:05:24.141Z,23.40
2018-03-26T00:07:50.567Z,25.07
2018-03-26T00:10:17.080Z,24.80
2018-03-26T00:12:43.616Z,23.27
2018-03-26T00:15:10.163Z,24.13
2018-03-26T00:17:36.550Z,23.67
2018-03-26T00:20:03.044Z,22.17
2018-03-26T00:22:29.581Z,24.43
2018-03-26T00:24:56.015Z,23.47
2018-03-26T00:27:22.447Z,22.43
2018-03-26T00:29:48.819Z,24.20
2018-03-26T00:32:15.259Z,23.97
2018-03-26T00:34:42.548Z,24.40
2018-03-26T00:37:08.973Z,24.33
2018-03-26T00:39:35.371Z,23.23
2018-03-26T00:42:01.800Z,23.47
2018-03-26T00:44:28.308Z,25.53
2018-03-26T00:46:54.759Z,24.27
2018-03-26T00:49:21.246Z,24.43
2018-03-26T00:51:47.640Z,23.60
2018-03-26T00:54:14.056Z,25.07
2018-03-26T00:56:40.565Z,22.70
2018-03-26T00:59:08.489Z,23.90
2018-03-26T01:01:34.891Z,25.10
2018-03-26T01:04:02.196Z,24.47
2018-03-26T01:06:28.651Z,24.80
2018-03-26T01:08:55.191Z,24.00
2018-03-26T01:11:21.824Z,23.63
2018-03-26T01:13:49.063Z,24.50
2018-03-26T01:16:15.441Z,25.67
2018-03-26T01:18:41.842Z,23.40
2018-03-26T01:21:08.242Z,23.87
2018-03-26T01:23:34.621Z,23.40
2018-03-26T01:26:01.803Z,24.17
2018-03-26T01:28:28.183Z,23.90
2018-03-26T01:30:54.599Z,24.43
2018-03-26T01:33:20.995Z,24.73
2018-03-26T01:35:48.102Z,23.70
2018-03-26T01:38:14.531Z,23.87
2018-03-26T01:40:40.978Z,24.27
2018-03-26T01:43:08.118Z,22.40
2018-03-26T01:45:34.545Z,24.87
2018-03-26T01:48:01.188Z,24.00
2018-03-26T01:50:29.065Z,23.53
2018-03-26T01:52:55.461Z,23.70
2018-03-26T01:55:21.927Z,24.70
2018-03-26T01:57:48.325Z,23.60
2018-03-26T02:00:14.791Z,25.33
2018-03-26T02:02:42.023Z,24.10
2018-03-26T02:05:08.415Z,25.43
2018-03-26T02:07:34.873Z,24.43
2018-03-26T02:10:01.336Z,26.37
2018-03-26T02:12:27.800Z,25.10
2018-03-26T02:14:54.307Z,26.13
2018-03-26T02:17:20.798Z,27.37
2018-03-26T02:19:47.203Z,24.90
2018-03-26T02:22:14.431Z,26.27
2018-03-26T02:24:40.856Z,23.77
2018-03-26T02:27:07.255Z,24.93
2018-03-26T02:29:33.639Z,27.33
2018-03-26T02:32:00.821Z,25.40
2018-03-26T02:34:27.193Z,24.30
2018-03-26T02:36:53.656Z,25.50
2018-03-26T02:39:27.073Z,25.97
2018-03-26T02:41:53.678Z,26.90
2018-03-26T02:44:20.859Z,24.40
2018-03-26T02:46:47.535Z,25.73
2018-03-26T02:49:14.093Z,26.07
2018-03-26T02:51:40.545Z,25.90
2018-03-26T02:54:07.726Z,25.83
2018-03-26T02:56:34.168Z,24.53
2018-03-26T02:59:00.652Z,24.70
2018-03-26T03:01:27.833Z,26.83
2018-03-26T03:03:54.241Z,24.60
2018-03-26T03:06:21.383Z,26.33
2018-03-26T03:08:48.549Z,26.77
2018-03-26T03:11:14.943Z,26.30
2018-03-26T03:13:41.360Z,25.90
2018-03-26T03:16:07.875Z,25.37
2018-03-26T03:18:34.291Z,26.17
2018-03-26T03:21:01.430Z,27.50
2018-03-26T03:23:28.666Z,24.90
2018-03-26T03:25:55.992Z,26.80
2018-03-26T03:28:22.454Z,26.80
2018-03-26T03:30:48.884Z,27.47
2018-03-26T03:33:15.275Z,27.80
2018-03-26T03:35:41.721Z,26.30
2018-03-26T03:38:08.155Z,28.20
2018-03-26T03:40:34.795Z,27.30
2018-03-26T03:43:01.359Z,26.90
2018-03-26T03:45:27.869Z,27.63
2018-03-26T03:47:54.275Z,27.53
2018-03-26T03:50:20.721Z,27.00
2018-03-26T03:52:47.148Z,26.97
2018-03-26T03:55:13.596Z,27.80
2018-03-26T03:57:40.006Z,27.07
2018-03-26T04:00:06.504Z,27.10
2018-03-26T04:02:32.879Z,29.07
2018-03-26T04:04:59.301Z,29.40
2018-03-26T04:07:25.703Z,28.20
2018-03-26T04:09:52.877Z,27.27
2018-03-26T04:12:19.275Z,29.23
2018-03-26T04:14:45.906Z,28.73
2018-03-26T04:17:12.289Z,28.10
2018-03-26T04:19:38.670Z,28.17
2018-03-26T04:22:05.107Z,28.30
2018-03-26T04:24:31.628Z,27.63
2018-03-26T04:26:58.174Z,27.47
2018-03-26T04:29:24.681Z,28.60
2018-03-26T04:31:51.070Z,29.10
2018-03-26T04:34:18.181Z,27.90
2018-03-26T04:36:44.646Z,28.63
2018-03-26T04:39:11.878Z,29.83
2018-03-26T04:41:38.334Z,30.70
2018-03-26T04:44:05.582Z,28.90
2018-03-26T04:46:31.995Z,26.63
2018-03-26T04:48:58.443Z,27.60
2018-03-26T04:51:25.591Z,27.33
2018-03-26T04:53:52.728Z,28.17
2018-03-26T04:56:19.157Z,30.50
2018-03-26T04:58:45.608Z,28.10
2018-03-26T05:01:12.023Z,29.70
2018-03-26T05:03:39.947Z,28.47
2018-03-26T05:06:06.388Z,27.47
2018-03-26T05:08:32.831Z,28.73
2018-03-26T05:10:59.258Z,29.33
2018-03-26T05:13:25.684Z,29.00
2018-03-26T05:15:52.156Z,31.20
2018-03-26T05:18:19.308Z,27.80
2018-03-26T05:20:45.777Z,27.53
2018-03-26T05:23:12.235Z,29.93
2018-03-26T05:25:38.635Z,29.87
2018-03-26T05:28:05.086Z,28.87
2018-03-26T05:30:31.536Z,29.67
2018-03-26T05:32:57.908Z,28.40
2018-03-26T05:35:24.359Z,30.77
2018-03-26T05:37:50.769Z,28.73
2018-03-26T05:40:17.206Z,29.23
2018-03-26T05:42:43.739Z,28.83
2018-03-26T05:45:10.215Z,30.50
2018-03-26T05:47:36.809Z,30.10
2018-03-26T05:50:03.315Z,29.63
2018-03-26T05:52:29.754Z,27.03
2018-03-26T05:54:56.938Z,29.70
2018-03-26T05:57:23.353Z,28.90
2018-03-26T05:59:49.792Z,26.77
2018-03-26T06:02:16.194Z,29.50
2018-03-26T06:04:43.398Z,28.33
2018-03-26T06:07:09.839Z,30.03
2018-03-26T06:09:36.263Z,31.07
2018-03-26T06:12:03.453Z,29.10
2018-03-26T06:14:29.883Z,27.07
2018-03-26T06:17:12.104Z,28.60
2018-03-26T06:19:38.567Z,28.57
2018-03-26T06:22:05.751Z,29.80
2018-03-26T06:24:32.912Z,28.97
2018-03-26T06:26:59.327Z,29.37
2018-03-26T06:29:26.482Z,28.50
2018-03-26T06:31:52.942Z,27.97
2018-03-26T06:34:19.380Z,30.40
2018-03-26T06:39:47.076Z,25.80
2018-03-26T06:42:13.620Z,28.27
2018-03-26T06:44:40.057Z,28.13
2018-03-26T06:47:06.607Z,30.73
2018-03-26T06:49:33.012Z,26.70
2018-03-26T06:51:59.558Z,25.77
2018-03-26T06:54:26.741Z,26.07
2018-03-26T06:56:53.924Z,26.40
2018-03-26T06:59:20.404Z,28.70
2018-03-26T07:01:47.553Z,25.87
2018-03-26T07:04:13.987Z,26.27
2018-03-26T07:06:40.387Z,25.43
2018-03-26T07:09:06.782Z,27.00
2018-03-26T07:11:33.953Z,26.23
2018-03-26T07:14:00.489Z,26.07
2018-03-26T07:16:26.972Z,25.70
2018-03-26T07:18:53.394Z,26.40
2018-03-26T07:21:20.575Z,27.47
2018-03-26T07:23:47.692Z,25.43
2018-03-26T07:26:14.145Z,27.40
2018-03-26T07:28:40.562Z,27.73
2018-03-26T07:31:07.007Z,27.20
2018-03-26T07:33:33.522Z,26.10
2018-03-26T07:35:59.973Z,25.77
2018-03-26T07:38:27.157Z,26.57
2018-03-26T07:40:53.608Z,27.73
2018-03-26T07:43:20.097Z,24.40
2018-03-26T07:45:46.532Z,25.60
2018-03-26T07:48:12.944Z,25.17
2018-03-26T07:50:39.341Z,26.87
2018-03-26T07:53:05.736Z,26.10
2018-03-26T07:55:32.918Z,26.87
2018-03-26T07:57:59.306Z,26.07
2018-03-26T08:00:25.812Z,25.77
2018-03-26T08:02:52.332Z,24.60
2018-03-26T08:05:18.775Z,26.90
2018-03-26T08:07:52.170Z,25.10
2018-03-26T08:10:18.608Z,24.63
2018-03-26T08:12:44.997Z,26.10
2018-03-26T08:15:11.467Z,26.13
2018-03-26T08:17:37.898Z,23.80
2018-03-26T08:20:04.319Z,27.70
2018-03-26T08:22:30.727Z,24.97
2018-03-26T08:24:57.876Z,27.43
2018-03-26T08:27:24.354Z,26.10
2018-03-26T08:29:50.780Z,25.10
2018-03-26T08:32:17.168Z,24.77
2018-03-26T08:34:43.567Z,24.43
2018-03-26T08:37:10.043Z,25.60
2018-03-26T08:39:36.475Z,24.40
2018-03-26T08:42:02.975Z,26.17
2018-03-26T08:44:29.406Z,24.13
2018-03-26T08:46:55.860Z,23.57
2018-03-26T08:49:22.283Z,24.00
2018-03-26T08:51:48.685Z,24.63
2018-03-26T08:54:15.075Z,24.10
2018-03-26T08:56:41.500Z,24.70
2018-03-26T08:59:08.673Z,25.23
2018-03-26T09:01:35.100Z,25.17
2018-03-26T09:04:01.504Z,22.90
2018-03-26T09:06:28.030Z,23.20
2018-03-26T09:08:55.387Z,25.47
2018-03-26T09:11:21.861Z,23.87
2018-03-26T09:13:48.298Z,21.23
2018-03-26T09:16:14.715Z,22.10
2018-03-26T09:18:41.128Z,21.33
2018-03-26T09:21:07.653Z,20.70
2018-03-26T09:23:34.801Z,23.20
2018-03-26T09:26:01.252Z,24.87
2018-03-26T09:28:27.715Z,23.80
2018-03-26T09:30:54.119Z,26.77
2018-03-26T09:33:20.633Z,24.53
2018-03-26T09:35:47.048Z,23.10
2018-03-26T09:38:13.437Z,22.63
2018-03-26T09:40:39.919Z,24.73
2018-03-26T09:43:06.467Z,24.30
2018-03-26T09:45:32.894Z,23.13
2018-03-26T09:47:59.417Z,20.73
2018-03-26T09:50:25.969Z,22.23
2018-03-26T09:52:53.146Z,22.00
2018-03-26T09:55:20.304Z,22.33
2018-03-26T09:57:46.737Z,22.37
2018-03-26T10:00:13.185Z,21.80
2018-03-26T10:02:39.630Z,19.53
2018-03-26T10:05:06.103Z,20.57
2018-03-26T10:07:32.491Z,21.13
2018-03-26T10:09:58.908Z,20.33
2018-03-26T10:12:25.384Z,19.63
2018-03-26T10:14:51.848Z,17.73
2018-03-26T10:17:19.085Z,18.60
2018-03-26T10:19:46.256Z,19.30
2018-03-26T10:22:13.405Z,19.43
2018-03-26T10:24:39.826Z,19.20
2018-03-26T10:27:06.357Z,19.60
2018-03-26T10:29:32.753Z,17.80
2018-03-26T10:31:59.327Z,19.97
2018-03-26T10:34:26.546Z,20.83
2018-03-26T10:36:52.933Z,19.13
2018-03-26T10:39:20.065Z,18.23
2018-03-26T10:41:46.552Z,19.20
2018-03-26T10:44:13.029Z,18.47
2018-03-26T10:46:40.234Z,18.30
2018-03-26T10:49:06.679Z,19.60
2018-03-26T10:51:33.121Z,18.60
2018-03-26T10:53:59.544Z,17.77
2018-03-26T10:56:26.009Z,18.60
2018-03-26T10:58:52.543Z,18.90
2018-03-26T11:01:19.078Z,21.17
2018-03-26T11:03:45.514Z,17.57
2018-03-26T11:06:12.644Z,19.77
2018-03-26T11:08:39.051Z,19.00
2018-03-26T11:11:05.743Z,19.27
2018-03-26T11:13:32.096Z,18.90
2018-03-26T11:15:58.599Z,18.77
2018-03-26T11:18:25.047Z,18.03
2018-03-26T11:20:51.463Z,18.73
2018-03-26T11:23:17.873Z,20.07
2018-03-26T11:25:44.343Z,19.03
2018-03-26T11:28:10.817Z,19.93
2018-03-26T11:30:37.226Z,21.27
2018-03-26T11:33:03.834Z,20.03
2018-03-26T11:35:30.234Z,19.00
2018-03-26T11:37:56.701Z,20.60
2018-03-26T11:40:23.901Z,20.60
2018-03-26T11:42:51.103Z,23.90
2018-03-26T11:45:18.274Z,21.47
2018-03-26T11:47:45.520Z,21.63
2018-03-26T11:50:12.837Z,22.03
2018-03-26T11:52:39.299Z,20.97
2018-03-26T11:55:06.521Z,21.93
2018-03-26T11:57:32.952Z,22.70
2018-03-26T12:00:00.209Z,21.77
2018-03-26T12:02:26.713Z,22.03
2018-03-26T12:04:53.126Z,22.17
2018-03-26T12:07:20.304Z,22.60
2018-03-26T12:09:46.748Z,22.27
2018-03-26T12:12:13.148Z,23.53
2018-03-26T12:14:39.593Z,22.77
2018-03-26T12:17:06.011Z,23.17
2018-03-26T12:19:33.147Z,21.97
2018-03-26T12:21:59.581Z,22.00
2018-03-26T12:24:39.098Z,22.70
2018-03-26T12:27:05.500Z,23.20
2018-03-26T12:29:44.551Z,23.90
2018-03-26T12:32:11.720Z,23.73
2018-03-26T12:37:45.919Z,23.77
2018-03-26T12:40:24.609Z,23.20
2018-03-26T12:42:51.101Z,24.43
2018-03-26T12:45:29.664Z,23.57
2018-03-26T12:47:56.134Z,24.40
2018-03-26T12:50:34.788Z,24.37
2018-03-26T12:53:01.972Z,24.20
2018-03-26T12:55:28.392Z,24.77
2018-03-26T12:58:07.005Z,24.43
2018-03-26T13:00:33.430Z,23.73
2018-03-26T13:02:59.857Z,26.67
2018-03-26T13:05:27.038Z,26.93
2018-03-26T13:07:53.510Z,25.97
2018-03-26T13:10:19.925Z,27.40
2018-03-26T13:12:46.395Z,27.70
2018-03-26T13:15:12.793Z,25.70
2018-03-26T13:17:39.230Z,27.20
2018-03-26T13:20:05.772Z,25.40
2018-03-26T13:22:32.179Z,26.53
2018-03-26T13:24:58.739Z,27.60
2018-03-26T13:27:25.167Z,27.10
2018-03-26T13:29:51.557Z,28.07
2018-03-26T13:32:18.853Z,28.27
2018-03-26T13:34:45.364Z,27.50
2018-03-26T13:37:11.928Z,30.00
2018-03-26T13:39:38.354Z,27.27
2018-03-26T13:42:04.828Z,26.27
2018-03-26T13:44:32.010Z,32.40
2018-03-26T13:46:58.446Z,27.50
2018-03-26T13:49:25.018Z,28.03
2018-03-26T13:51:51.467Z,28.33
2018-03-26T13:54:18.692Z,27.50
2018-03-26T13:56:45.218Z,28.03
2018-03-26T13:59:11.790Z,28.87
2018-03-26T14:01:39.052Z,29.10
2018-03-26T14:04:05.681Z,29.70
2018-03-26T14:06:32.952Z,27.37
2018-03-26T14:09:11.622Z,27.80
2018-03-26T14:11:50.467Z,26.63
2018-03-26T14:14:29.264Z,29.10
2018-03-26T14:17:08.151Z,26.00
2018-03-26T14:19:34.615Z,26.77
2018-03-26T14:22:01.094Z,28.10
2018-03-26T14:24:27.488Z,28.37
2018-03-26T14:26:53.951Z,27.00
2018-03-26T14:29:21.882Z,26.97
2018-03-26T14:31:48.338Z,24.13
2018-03-26T14:34:14.784Z,25.53
2018-03-26T14:36:41.202Z,27.30
2018-03-26T14:39:07.865Z,29.40
2018-03-26T14:41:34.485Z,26.40
2018-03-26T14:44:00.967Z,28.27
2018-03-26T14:46:27.391Z,26.47
2018-03-26T14:48:54.602Z,26.63
2018-03-26T14:51:20.996Z,26.53
2018-03-26T14:53:47.587Z,26.77
2018-03-26T14:56:14.230Z,29.00
2018-03-26T14:58:41.389Z,28.93
2018-03-26T15:01:07.900Z,28.90
2018-03-26T15:03:34.549Z,26.80
2018-03-26T15:06:00.971Z,27.17
2018-03-26T15:08:27.721Z,33.40
2018-03-26T15:10:54.239Z,31.07
2018-03-26T15:13:20.897Z,28.27
2018-03-26T15:15:48.103Z,28.60
2018-03-26T15:18:14.567Z,32.80
2018-03-26T15:20:40.951Z,31.80
2018-03-26T15:23:07.356Z,29.03
2018-03-26T15:25:33.808Z,28.00
2018-03-26T15:28:00.236Z,30.03
2018-03-26T15:30:27.847Z,28.17
2018-03-26T15:32:54.381Z,29.90
2018-03-26T15:35:20.849Z,32.83
2018-03-26T15:37:47.330Z,29.30
2018-03-26T15:40:13.789Z,29.40
2018-03-26T15:42:40.166Z,29.70
2018-03-26T15:45:06.621Z,29.53
2018-03-26T15:47:33.079Z,28.67
2018-03-26T15:49:59.506Z,32.83
2018-03-26T15:52:25.992Z,29.47
2018-03-26T15:54:53.432Z,30.50
2018-03-26T15:57:20.626Z,29.53
2018-03-26T15:59:47.104Z,28.67
2018-03-26T16:02:13.670Z,29.60
2018-03-26T16:04:40.143Z,28.83
2018-03-26T16:07:06.576Z,29.90
2018-03-26T16:09:33.055Z,27.33
2018-03-26T16:11:59.507Z,29.43
2018-03-26T16:14:25.936Z,28.13
2018-03-26T16:16:53.158Z,30.07
2018-03-26T16:19:19.538Z,29.60
2018-03-26T16:21:45.952Z,29.50
2018-03-26T16:24:12.378Z,30.23
2018-03-26T16:26:39.593Z,29.73
2018-03-26T16:29:06.009Z,29.10
2018-03-26T16:31:32.448Z,28.60
2018-03-26T16:33:58.855Z,29.80
2018-03-26T16:36:25.314Z,30.50
2018-03-26T16:38:51.793Z,28.90
2018-03-26T16:41:31.148Z,30.70
2018-03-26T16:43:58.474Z,28.00
2018-03-26T16:46:24.882Z,28.97
2018-03-26T16:48:51.422Z,29.63
2018-03-26T16:51:17.908Z,30.40
2018-03-26T16:53:45.098Z,30.90
2018-03-26T16:56:11.666Z,30.07
2018-03-26T16:58:38.917Z,30.20
2018-03-26T17:01:05.307Z,30.50
2018-03-26T17:03:31.723Z,31.43
2018-03-26T17:05:58.204Z,32.03
2018-03-26T17:08:25.470Z,32.17
2018-03-26T17:10:51.978Z,30.70
2018-03-26T17:13:18.435Z,30.83
2018-03-26T17:15:44.868Z,30.70
2018-03-26T17:18:11.305Z,31.50
2018-03-26T17:20:37.707Z,33.03
2018-03-26T17:23:04.183Z,33.90
2018-03-26T17:25:31.403Z,31.53
2018-03-26T17:27:58.041Z,32.30
2018-03-26T17:30:24.497Z,30.13
2018-03-26T17:32:50.931Z,33.50
2018-03-26T17:35:18.115Z,32.23
2018-03-26T17:37:44.552Z,31.20
2018-03-26T17:40:11.016Z,35.80
2018-03-26T17:42:37.448Z,34.30
2018-03-26T17:45:03.930Z,33.37
2018-03-26T17:47:31.115Z,34.03
2018-03-26T17:49:57.912Z,33.57
2018-03-26T17:52:24.375Z,32.20
2018-03-26T17:54:50.827Z,30.60
2018-03-26T17:57:17.267Z,32.03
2018-03-26T17:59:43.739Z,32.97
2018-03-26T18:02:10.182Z,32.13
2018-03-26T18:04:37.389Z,31.77
2018-03-26T18:07:03.819Z,31.20
2018-03-26T18:09:30.286Z,35.27
2018-03-26T18:11:56.736Z,33.87
2018-03-26T18:14:24.054Z,33.93
2018-03-26T18:16:50.467Z,33.53
2018-03-26T18:19:16.913Z,32.90
2018-03-26T18:21:43.381Z,33.27
2018-03-26T18:24:09.801Z,35.77
2018-03-26T18:26:36.259Z,36.73
2018-03-26T18:29:02.736Z,34.23
2018-03-26T18:31:29.166Z,35.47
2018-03-26T18:33:55.674Z,36.33
2018-03-26T18:36:22.175Z,35.80
2018-03-26T18:38:48.602Z,36.93
2018-03-26T18:41:15.144Z,37.20
2018-03-26T18:43:41.786Z,34.63
2018-03-26T18:46:09.009Z,35.43
2018-03-26T18:48:35.464Z,34.23
2018-03-26T18:51:01.989Z,37.17
2018-03-26T18:53:28.412Z,37.42
2018-03-26T18:55:54.911Z,35.87
2018-03-26T18:58:21.352Z,34.93
2018-03-26T19:00:47.774Z,34.80
2018-03-26T19:03:14.218Z,33.20
2018-03-26T19:05:40.783Z,30.60
2018-03-26T19:08:07.221Z,31.40
2018-03-26T19:10:33.866Z,29.20
2018-03-26T19:13:00.331Z,28.43
2018-03-26T19:15:26.842Z,27.57
2018-03-26T19:17:53.395Z,28.87
2018-03-26T19:20:20.638Z,27.30
2018-03-26T19:22:47.869Z,25.83
2018-03-26T19:25:14.403Z,25.83
2018-03-26T19:27:40.864Z,25.13
2018-03-26T19:30:08.088Z,24.20
2018-03-26T19:32:34.596Z,23.27
2018-03-26T19:35:01.051Z,21.33
2018-03-26T19:37:27.609Z,22.10
2018-03-26T19:39:54.866Z,21.03
2018-03-26T19:42:21.307Z,21.30
2018-03-26T19:44:48.652Z,20.27
2018-03-26T19:47:15.261Z,19.47
2018-03-26T19:49:41.721Z,19.37
2018-03-26T19:52:08.256Z,20.37
2018-03-26T19:54:35.473Z,22.37
2018-03-26T19:57:01.847Z,20.37
2018-03-26T19:59:28.374Z,17.83
2018-03-26T20:01:55.540Z,18.30
2018-03-26T20:04:21.965Z,18.67
2018-03-26T20:06:49.119Z,16.47
2018-03-26T20:09:16.339Z,18.10
2018-03-26T20:11:42.790Z,28.53
2018-03-26T20:14:09.176Z,18.83
2018-03-26T20:16:35.679Z,13.43
2018-03-26T20:19:02.859Z,14.30
2018-03-26T20:21:29.323Z,13.03
2018-03-26T20:23:55.786Z,12.83
2018-03-26T20:26:22.970Z,11.33
2018-03-26T20:28:49.392Z,12.30
2018-03-26T20:31:15.946Z,10.50
2018-03-26T20:33:42.342Z,11.07
2018-03-26T20:36:08.810Z,10.23
2018-03-26T20:38:35.244Z,10.30
2018-03-26T20:41:01.699Z,10.97
2018-03-26T20:43:28.119Z,10.07
2018-03-26T20:45:54.695Z,9.60
2018-03-26T20:48:21.131Z,9.70
2018-03-26T20:50:47.542Z,9.37
2018-03-26T20:53:14.081Z,9.77
2018-03-26T20:55:40.498Z,8.43
2018-03-26T20:58:06.964Z,9.30
2018-03-26T21:00:34.203Z,7.67
2018-03-26T21:03:00.684Z,8.20
2018-03-26T21:05:34.218Z,8.10
2018-03-26T21:08:00.770Z,8.37
2018-03-26T21:10:27.195Z,8.47
2018-03-26T21:12:53.586Z,9.50
2018-03-26T21:15:20.038Z,8.20
2018-03-26T21:17:46.462Z,7.13
2018-03-26T21:20:12.862Z,7.00
2018-03-26T21:22:39.319Z,6.10
2018-03-26T21:25:05.745Z,7.80
2018-03-26T21:27:32.221Z,7.60
2018-03-26T21:29:59.586Z,7.80
2018-03-26T21:32:26.144Z,7.87
2018-03-26T21:34:52.625Z,7.50
2018-03-26T21:37:19.851Z,7.30
2018-03-26T21:39:46.410Z,7.50
2018-03-26T21:42:12.872Z,8.03
2018-03-26T21:44:39.311Z,7.30
2018-03-26T21:47:05.732Z,6.83
2018-03-26T21:49:32.251Z,7.80
2018-03-26T21:51:58.871Z,8.00
2018-03-26T21:54:25.411Z,8.97
2018-03-26T21:56:51.899Z,7.80
2018-03-26T21:59:18.346Z,7.73
2018-03-26T22:01:45.589Z,7.13
2018-03-26T22:04:12.807Z,8.80
2018-03-26T22:06:39.274Z,7.43
2018-03-26T22:09:05.718Z,7.83
2018-03-26T22:11:32.166Z,8.27
2018-03-26T22:13:58.651Z,8.30
2018-03-26T22:16:25.070Z,8.00
2018-03-26T22:18:51.543Z,7.20
2018-03-26T22:21:18.075Z,7.60
2018-03-26T22:23:44.547Z,7.70
2018-03-26T22:26:11.019Z,8.27
2018-03-26T22:28:37.683Z,8.20
2018-03-26T22:31:04.220Z,8.37
2018-03-26T22:33:30.617Z,9.43
2018-03-26T22:35:57.164Z,7.87
2018-03-26T22:38:23.626Z,8.17
2018-03-26T22:40:50.810Z,8.90
2018-03-26T22:43:17.397Z,9.10
2018-03-26T22:45:43.919Z,9.43
2018-03-26T22:48:10.337Z,9.13
2018-03-26T22:50:36.779Z,10.83
2018-03-26T22:53:03.211Z,9.83
2018-03-26T22:55:29.590Z,9.13
2018-03-26T22:57:56.414Z,9.47
2018-03-26T23:00:22.842Z,10.60
2018-03-26T23:02:49.242Z,10.03
2018-03-26T23:05:15.714Z,9.40
2018-03-26T23:07:42.151Z,9.37
2018-03-26T23:10:09.334Z,10.17
2018-03-26T23:12:35.765Z,9.10
2018-03-26T23:15:02.271Z,9.40
2018-03-26T23:17:29.414Z,9.30
2018-03-26T23:19:55.839Z,9.93
2018-03-26T23:22:34.754Z,10.00
2018-03-26T23:25:01.282Z,9.43
2018-03-26T23:27:27.818Z,9.50
2018-03-26T23:29:54.279Z,9.80
2018-03-26T23:32:20.691Z,9.07
2018-03-26T23:34:47.083Z,9.73
2018-03-26T23:37:13.536Z,10.00
2018-03-26T23:39:40.013Z,10.93
2018-03-26T23:42:06.426Z,11.53
2018-03-26T23:44:32.870Z,11.00
2018-03-26T23:47:00.047Z,10.40
2018-03-26T23:49:27.186Z,10.47
2018-03-26T23:51:54.532Z,10.03
2018-03-26T23:54:21.715Z,11.23
2018-03-26T23:56:48.102Z,9.90
2018-03-26T23:59:14.509Z,11.00
